Allen, MI

2:16 PM EST on January 29, 2015 (GMT -0500)
West side Reading Township | Change Station
CLOSE
Current Station
Personal Weather Station
Location: Reading, MI
Elevation: 1031 ft
Nearby Weather Stations

Elev 1031 ft 41.85 °N, 84.80 °W | Updated 5 seconds ago

Overcast
Overcast
33.1 °F
Feels Like 26 °F
N
8.0
Wind Variable Wind from North
Gusts 8.0 mph

Today
High -- | Low -- °F
--% Chance of Precip.
Yesterday
High -- | Low -- °F
Precip. -- in
7:54 AM 5:49 PM
Waxing Gibbous, 76% visible
Pressure 29.73 in
Visibility 4.0 miles
Clouds Mostly Cloudy 1600 ft
Overcast 3100 ft
Windchill 26 °F
Dew Point 30 °F
Humidity 90%
Rainfall 0.04 in
Snow Depth Not available.
UV 1 out of 12
Pollen .10 out of 12
Air Quality Not available.
Flu Activity Not available.
METAR KJYM 291855Z AUTO 32011G18KT 4SM -SN BKN016 OVC031 01/M01 A2973 RMK AO2 T00121007

More Conditions Fewer Conditions

Pressure 29.73 in
Visibility 4.0 miles
Clouds Mostly Cloudy 1600 ft
Overcast 3100 ft
Windchill 26 °F
Dew Point 30 °F
Humidity 90%
Rainfall 0.04 in
Snow Depth Not available.
UV 1 out of 12
Pollen .10 out of 12
Air Quality Not available.
Flu Activity Not available.
METAR KJYM 291855Z AUTO 32011G18KT 4SM -SN BKN016 OVC031 01/M01 A2973 RMK AO2 T00121007

More Conditions Fewer Conditions

10-Day Weather Forecast

Almanac

Astronomy

Jan. 29, 2015 Rise Set
Actual Time
Civil Twilight
Nautical Twilight
Astronomical Twilight
Moon
Length of Visible Light
Length of Day
Tomorrow will be .
, % of the Moon is Illuminated

Today's Extremes

State Highs State Lows

Community

WunderPhotos

Upload Photos

1,791,561 photos uploaded!

WunderBlogs® & News

Nearby

Air Quality

  Air Quality AQ Index Pollutant
Not available.

Snow Depth

Station Depth Elevation

Earthquake Activity

City Distance Mag. Time & Date
Minimum magnitude displayed is 2.5.

Coastal Water Temperatures

Place Temperature

Nearby Weather Stations